Time;durP1;ratioP1;P1;durP2;ratioP2;P2;SDS_P1;SDS_P2;PMS_P1;PMS_P2;Temp;Humidity;BMP_temperature;BMP_pressure;BME280_temperature;BME280_humidity;BME280_pressure;Samples;Min_cycle;Max_cycle;Signal;HPM_P1;HPM_P2
2021/12/19 00:04:28;;;;;;;21.33;8.02;;;3.10;99.90;;;;;;5045503;28;20493;-68
2021/12/19 00:09:38;;;;;;;20.45;7.57;;;3.20;99.90;;;;;;5052142;28;20086;-70
2021/12/19 00:12:04;;;;;;;18.27;8.10;;;3.20;99.90;;;;;;5034783;28;20028;-69
2021/12/19 00:14:30;;;;;;;18.40;7.68;;;3.20;99.90;;;;;;5034602;28;20029;-69
2021/12/19 00:16:56;;;;;;;18.08;7.50;;;3.10;99.90;;;;;;5033657;28;20366;-68
2021/12/19 00:19:22;;;;;;;15.10;7.20;;;3.20;99.90;;;;;;5033752;28;20078;-69
2021/12/19 00:21:48;;;;;;;19.25;7.68;;;3.20;99.90;;;;;;5035001;28;20039;-69
2021/12/19 00:24:14;;;;;;;17.65;6.78;;;3.20;99.90;;;;;;5034930;28;20032;-68
2021/12/19 00:26:40;;;;;;;16.17;7.22;;;3.20;99.90;;;;;;5041809;28;20469;-69
2021/12/19 00:29:06;;;;;;;17.25;7.15;;;3.20;99.90;;;;;;5042817;28;20044;-69
2021/12/19 00:31:32;;;;;;;16.00;7.10;;;3.10;99.90;;;;;;5033661;28;20028;-69
2021/12/19 00:33:59;;;;;;;18.48;7.40;;;3.10;99.90;;;;;;5042298;28;20036;-69
2021/12/19 00:36:25;;;;;;;14.45;6.78;;;3.10;99.90;;;;;;5036301;28;20037;-69
2021/12/19 00:38:51;;;;;;;16.92;7.40;;;3.10;99.90;;;;;;5039230;28;20117;-68
2021/12/19 00:41:17;;;;;;;17.70;7.72;;;3.10;99.90;;;;;;5042891;28;20028;-69
2021/12/19 00:43:47;;;;;;;18.42;7.78;;;3.10;99.90;;;;;;5031700;28;20039;-68
2021/12/19 00:46:16;;;;;;;18.05;6.32;;;3.10;99.90;;;;;;5027732;28;20045;-69
2021/12/19 00:48:53;;;;;;;15.85;7.00;;;3.10;99.90;;;;;;5033296;28;20027;-70
2021/12/19 00:51:22;;;;;;;17.50;7.05;;;3.10;99.90;;;;;;5045533;28;20025;-69
2021/12/19 00:53:50;;;;;;;16.65;6.82;;;3.10;99.90;;;;;;5036014;28;20036;-69
2021/12/19 00:56:16;;;;;;;16.58;6.47;;;3.00;99.90;;;;;;5030781;28;20028;-69
2021/12/19 00:58:43;;;;;;;16.65;7.40;;;3.00;99.90;;;;;;5028959;28;20044;-69
2021/12/19 01:01:10;;;;;;;18.63;6.85;;;3.10;99.90;;;;;;5032165;28;20112;-69
2021/12/19 01:03:36;;;;;;;15.60;6.60;;;3.10;99.90;;;;;;5051859;28;20091;-69
2021/12/19 01:06:03;;;;;;;14.88;6.65;;;3.10;99.90;;;;;;5034000;28;20025;-69
2021/12/19 01:08:29;;;;;;;13.75;6.57;;;3.10;99.90;;;;;;5046772;28;20666;-69
2021/12/19 01:10:55;;;;;;;14.88;6.30;;;3.10;99.90;;;;;;5027579;28;20124;-68
2021/12/19 01:13:20;;;;;;;16.75;6.68;;;3.10;99.90;;;;;;5038653;28;20041;-69
2021/12/19 01:15:47;;;;;;;13.70;6.03;;;3.10;99.90;;;;;;5044754;28;20025;-69
2021/12/19 01:18:14;;;;;;;16.35;7.25;;;3.10;99.90;;;;;;5038840;28;20036;-69
2021/12/19 01:20:41;;;;;;;19.10;6.60;;;3.10;99.90;;;;;;5044745;28;20021;-69
2021/12/19 01:23:08;;;;;;;14.68;6.38;;;3.10;99.90;;;;;;5034041;28;20028;-68
2021/12/19 01:25:34;;;;;;;15.60;6.57;;;3.10;99.90;;;;;;5033930;28;20068;-69
2021/12/19 01:28:00;;;;;;;17.92;6.80;;;3.10;99.90;;;;;;5031637;28;20080;-69
2021/12/19 01:30:26;;;;;;;15.32;6.78;;;3.10;99.90;;;;;;5033986;28;20115;-69
2021/12/19 01:32:52;;;;;;;17.50;7.00;;;3.10;99.90;;;;;;5041082;28;20392;-69
2021/12/19 01:35:19;;;;;;;14.15;6.00;;;3.10;99.90;;;;;;5033534;28;20166;-69
2021/12/19 01:37:46;;;;;;;14.40;6.28;;;3.10;99.90;;;;;;5029706;28;20036;-68
2021/12/19 01:40:15;;;;;;;13.27;5.97;;;3.10;99.90;;;;;;5041390;28;20077;-69
2021/12/19 01:42:44;;;;;;;15.05;5.60;;;3.10;99.90;;;;;;5033019;28;20535;-69
2021/12/19 01:45:12;;;;;;;22.27;5.30;;;3.00;99.90;;;;;;5033361;28;20036;-69
2021/12/19 01:47:39;;;;;;;14.35;5.60;;;3.00;99.90;;;;;;5027217;28;20124;-70
2021/12/19 01:50:06;;;;;;;28.55;5.70;;;3.00;99.90;;;;;;5023374;28;20025;-69
2021/12/19 01:52:32;;;;;;;16.13;5.90;;;2.90;99.90;;;;;;5031110;28;20029;-68
2021/12/19 01:54:58;;;;;;;20.15;5.68;;;2.90;99.90;;;;;;5019969;28;20025;-68
2021/12/19 01:57:25;;;;;;;13.25;6.30;;;2.90;99.90;;;;;;5025385;28;20031;-68
2021/12/19 01:59:52;;;;;;;18.23;6.63;;;2.80;99.90;;;;;;5032906;28;20029;-69
2021/12/19 02:02:18;;;;;;;16.33;6.28;;;2.80;99.90;;;;;;5032357;28;20024;-69
2021/12/19 02:04:44;;;;;;;17.23;5.63;;;2.70;99.90;;;;;;5033208;28;20032;-69
2021/12/19 02:07:11;;;;;;;11.23;5.43;;;2.70;99.90;;;;;;5032174;28;20024;-69
2021/12/19 02:09:38;;;;;;;13.70;5.22;;;2.70;99.90;;;;;;5032036;28;20407;-69
2021/12/19 02:12:04;;;;;;;15.45;6.13;;;2.70;99.90;;;;;;5035527;28;20029;-71
2021/12/19 02:14:30;;;;;;;13.65;5.97;;;2.70;99.90;;;;;;5033223;28;20028;-69
2021/12/19 02:16:56;;;;;;;12.00;5.53;;;2.70;99.90;;;;;;5031572;28;20075;-69
2021/12/19 02:19:25;;;;;;;16.20;6.50;;;2.70;99.90;;;;;;5032716;28;20477;-69
2021/12/19 02:21:51;;;;;;;14.18;6.50;;;2.70;99.90;;;;;;5033237;28;20504;-70
2021/12/19 02:24:17;;;;;;;21.13;6.60;;;2.70;99.90;;;;;;5033403;28;20036;-69
2021/12/19 02:26:44;;;;;;;15.95;6.80;;;2.70;99.90;;;;;;5029852;28;20079;-69
2021/12/19 02:29:11;;;;;;;16.42;6.65;;;2.70;99.90;;;;;;5030945;28;20508;-69
2021/12/19 02:31:38;;;;;;;13.98;5.95;;;2.70;99.90;;;;;;5032430;28;20494;-69
2021/12/19 02:34:10;;;;;;;16.08;6.22;;;2.70;99.90;;;;;;5040060;28;20064;-69
2021/12/19 02:37:45;;;;;;;15.63;5.88;;;2.70;99.90;;;;;;5028070;28;20492;-69
2021/12/19 02:50:33;;;;;;;16.05;5.45;;;2.60;99.90;;;;;;5046042;28;20082;-69
2021/12/19 02:52:59;;;;;;;15.10;6.22;;;2.60;99.90;;;;;;5032656;28;20444;-68
2021/12/19 02:55:25;;;;;;;14.68;5.85;;;2.60;99.90;;;;;;5032530;28;20029;-69
2021/12/19 02:57:52;;;;;;;14.30;5.65;;;2.60;99.90;;;;;;5029275;28;20029;-69
2021/12/19 03:00:24;;;;;;;15.77;6.10;;;2.50;99.90;;;;;;5032401;28;20064;-69
2021/12/19 03:02:50;;;;;;;15.48;6.13;;;2.60;99.90;;;;;;5030994;28;20083;-69
2021/12/19 03:05:16;;;;;;;17.42;6.28;;;2.60;99.90;;;;;;5032327;28;20032;-68
2021/12/19 03:07:43;;;;;;;15.38;4.95;;;2.60;99.90;;;;;;5035644;28;20029;-69
2021/12/19 03:18:25;;;;;;;14.15;5.20;;;2.50;99.90;;;;;;5049550;28;20040;-69
2021/12/19 03:20:51;;;;;;;12.82;4.72;;;2.50;99.90;;;;;;5034701;28;20029;-69
2021/12/19 03:23:17;;;;;;;20.13;5.40;;;2.50;99.90;;;;;;5035586;28;20063;-69
2021/12/19 03:25:44;;;;;;;13.05;4.95;;;2.50;99.90;;;;;;5036125;28;20478;-69
2021/12/19 03:28:12;;;;;;;10.32;4.47;;;2.50;99.90;;;;;;5041950;28;20448;-70
2021/12/19 03:30:39;;;;;;;14.50;5.03;;;2.60;99.90;;;;;;5035845;28;20025;-68
2021/12/19 03:33:05;;;;;;;12.98;4.38;;;2.60;99.90;;;;;;5035267;28;20460;-68
2021/12/19 03:35:31;;;;;;;13.38;4.80;;;2.60;99.90;;;;;;5035881;28;20043;-69
2021/12/19 03:37:59;;;;;;;12.98;4.70;;;2.60;99.90;;;;;;5035091;28;20029;-69
2021/12/19 03:40:35;;;;;;;14.55;4.78;;;2.60;99.90;;;;;;5064369;28;20404;-69
2021/12/19 03:43:22;;;;;;;10.02;3.58;;;2.60;99.90;;;;;;5033128;28;20025;-68
2021/12/19 03:45:48;;;;;;;7.72;3.38;;;2.60;99.90;;;;;;5034971;28;20033;-69
2021/12/19 03:48:16;;;;;;;6.43;2.60;;;2.60;99.90;;;;;;5037340;28;20104;-69
2021/12/19 03:50:47;;;;;;;6.03;2.55;;;2.50;99.90;;;;;;5034766;28;20534;-69
2021/12/19 03:53:14;;;;;;;5.53;2.83;;;2.50;99.90;;;;;;5035606;28;20025;-69
2021/12/19 03:55:40;;;;;;;6.45;2.70;;;2.50;99.90;;;;;;5035123;28;20082;-69
2021/12/19 03:58:06;;;;;;;4.97;3.03;;;2.50;99.90;;;;;;5058736;28;20032;-69
2021/12/19 04:00:32;;;;;;;8.13;3.10;;;2.50;99.90;;;;;;5034460;28;20401;-68
2021/12/19 04:03:03;;;;;;;8.50;3.25;;;2.50;99.90;;;;;;5035507;28;20029;-69
2021/12/19 04:05:29;;;;;;;6.55;3.00;;;2.50;99.90;;;;;;5036125;28;20079;-69
2021/12/19 04:07:55;;;;;;;7.78;3.47;;;2.50;99.90;;;;;;5039443;28;20470;-69
2021/12/19 04:10:22;;;;;;;6.18;3.08;;;2.50;99.90;;;;;;5028089;28;20115;-69
2021/12/19 04:12:48;;;;;;;5.20;2.75;;;2.50;99.90;;;;;;5034957;28;20112;-68
2021/12/19 04:15:14;;;;;;;6.13;2.40;;;2.60;99.90;;;;;;5034730;28;20059;-68
2021/12/19 04:17:40;;;;;;;5.82;2.80;;;2.50;99.90;;;;;;5034586;28;20064;-68
2021/12/19 04:20:06;;;;;;;5.32;2.45;;;2.50;99.90;;;;;;5034789;28;20029;-69
2021/12/19 04:22:32;;;;;;;7.85;2.80;;;2.50;99.90;;;;;;5034401;28;20036;-68
2021/12/19 04:24:57;;;;;;;4.93;2.80;;;2.50;99.90;;;;;;5034628;28;20397;-69
2021/12/19 04:27:24;;;;;;;4.00;2.60;;;2.50;99.90;;;;;;5045973;28;20031;-69
2021/12/19 04:29:50;;;;;;;5.80;2.50;;;2.40;99.90;;;;;;5042977;28;20025;-68
2021/12/19 04:32:18;;;;;;;3.20;2.38;;;2.40;99.90;;;;;;5036697;28;20071;-68
2021/12/19 04:34:44;;;;;;;4.45;2.53;;;2.40;99.90;;;;;;5041475;28;20125;-68
2021/12/19 04:40:13;;;;;;;3.35;2.03;;;2.40;99.90;;;;;;5005466;28;20051;-69
2021/12/19 05:01:12;;;;;;;1.90;1.40;;;2.30;99.90;;;;;;5051838;28;20120;-69
2021/12/19 05:14:32;;;;;;;2.70;2.17;;;2.30;99.90;;;;;;5034444;28;20793;-69
2021/12/19 05:17:07;;;;;;;4.38;2.55;;;2.30;99.90;;;;;;5027004;28;20048;-67
2021/12/19 05:22:19;;;;;;;3.15;2.47;;;2.20;99.90;;;;;;5051749;28;20468;-69
2021/12/19 05:27:11;;;;;;;3.55;2.38;;;2.30;99.90;;;;;;5047092;28;20051;-68
2021/12/19 05:29:37;;;;;;;4.35;2.35;;;2.20;99.90;;;;;;5027769;28;20021;-69
2021/12/19 05:32:04;;;;;;;4.05;2.47;;;2.20;99.90;;;;;;5034546;28;20368;-69
2021/12/19 05:34:30;;;;;;;5.22;2.47;;;2.20;99.90;;;;;;5041922;28;20037;-68
2021/12/19 05:47:36;;;;;;;5.47;2.75;;;2.20;99.90;;;;;;5049324;28;20478;-69
2021/12/19 05:50:04;;;;;;;4.30;2.30;;;2.20;99.90;;;;;;5026108;28;20021;-68
2021/12/19 05:52:30;;;;;;;3.67;2.53;;;2.30;99.90;;;;;;5033620;28;20064;-68
2021/12/19 05:54:56;;;;;;;4.90;2.75;;;2.20;99.90;;;;;;5033158;28;20477;-69
2021/12/19 05:57:21;;;;;;;4.47;2.55;;;2.20;99.90;;;;;;5032552;28;20033;-69
2021/12/19 05:59:47;;;;;;;5.55;2.55;;;2.20;99.90;;;;;;5032342;28;20033;-68
2021/12/19 06:02:13;;;;;;;4.45;2.72;;;2.10;99.90;;;;;;5026625;28;20460;-69
2021/12/19 06:04:39;;;;;;;5.97;2.97;;;2.10;99.90;;;;;;5029554;28;20038;-69
2021/12/19 06:07:04;;;;;;;4.50;2.65;;;2.10;99.90;;;;;;5035146;28;20066;-68
2021/12/19 06:09:30;;;;;;;4.18;2.42;;;2.10;99.90;;;;;;5036801;28;20393;-69
2021/12/19 06:11:56;;;;;;;4.38;2.45;;;2.10;99.90;;;;;;5029156;28;20033;-68
2021/12/19 06:14:22;;;;;;;4.55;2.53;;;2.20;99.90;;;;;;5027568;28;20378;-68
2021/12/19 06:16:48;;;;;;;6.45;2.30;;;2.10;99.90;;;;;;5032470;28;20037;-69
2021/12/19 06:19:14;;;;;;;4.57;2.40;;;2.20;99.90;;;;;;5032897;28;20021;-69
2021/12/19 06:21:40;;;;;;;6.63;3.15;;;2.20;99.90;;;;;;5032894;28;20033;-69
2021/12/19 06:24:06;;;;;;;7.43;2.90;;;2.20;99.90;;;;;;5033273;28;20028;-69
2021/12/19 06:26:35;;;;;;;4.13;2.50;;;2.20;99.90;;;;;;5036782;28;20156;-68
2021/12/19 06:29:02;;;;;;;4.35;2.78;;;2.20;99.90;;;;;;5051669;28;20480;-68
2021/12/19 06:31:28;;;;;;;4.43;2.35;;;2.20;99.90;;;;;;5037906;28;20025;-69
2021/12/19 06:33:53;;;;;;;4.03;2.47;;;2.20;99.90;;;;;;5033520;28;20033;-69
2021/12/19 06:36:20;;;;;;;3.78;2.72;;;2.20;99.90;;;;;;5032485;28;20036;-68
2021/12/19 06:38:45;;;;;;;5.15;2.70;;;2.20;99.90;;;;;;5050437;28;20036;-68
2021/12/19 06:41:11;;;;;;;5.82;3.10;;;2.20;99.90;;;;;;5032353;28;20063;-69
2021/12/19 06:43:37;;;;;;;4.30;3.13;;;2.20;99.90;;;;;;5032462;28;20025;-69
2021/12/19 06:46:03;;;;;;;5.20;3.47;;;2.30;99.90;;;;;;5040404;28;20431;-69
2021/12/19 06:48:29;;;;;;;7.47;4.25;;;2.30;99.90;;;;;;5036129;28;20101;-69
2021/12/19 06:50:55;;;;;;;5.97;3.30;;;2.30;99.90;;;;;;5032646;28;20393;-69
2021/12/19 06:53:21;;;;;;;7.50;3.88;;;2.20;99.90;;;;;;5032585;28;20075;-68
2021/12/19 06:55:47;;;;;;;4.05;2.75;;;2.30;99.90;;;;;;5053341;28;20094;-69
2021/12/19 06:58:13;;;;;;;5.80;3.20;;;2.20;99.90;;;;;;5035503;28;20032;-69
2021/12/19 07:00:39;;;;;;;5.40;2.88;;;2.30;99.90;;;;;;5036068;28;20033;-68
2021/12/19 07:03:05;;;;;;;6.40;3.47;;;2.30;99.90;;;;;;5036101;28;20021;-70
2021/12/19 07:05:31;;;;;;;4.25;3.00;;;2.30;99.90;;;;;;5042530;28;20035;-69
2021/12/19 07:07:56;;;;;;;4.55;2.75;;;2.20;99.90;;;;;;5035449;28;20484;-68
2021/12/19 07:10:22;;;;;;;6.50;3.05;;;2.20;99.90;;;;;;5040017;28;20033;-68
2021/12/19 07:12:48;;;;;;;4.78;2.95;;;2.30;99.90;;;;;;5051619;28;20021;-68
2021/12/19 07:15:18;;;;;;;4.15;3.15;;;2.30;99.90;;;;;;5035568;28;20040;-68
2021/12/19 07:17:44;;;;;;;6.93;3.78;;;2.30;99.90;;;;;;5038679;28;20484;-68
2021/12/19 07:20:10;;;;;;;8.73;3.55;;;2.30;99.90;;;;;;5038189;28;20036;-67
2021/12/19 07:22:36;;;;;;;7.07;2.88;;;2.30;99.90;;;;;;5047886;28;20123;-66
2021/12/19 07:25:03;;;;;;;6.85;2.65;;;2.30;99.90;;;;;;5055761;28;20361;-67
2021/12/19 07:27:28;;;;;;;7.43;3.70;;;2.30;99.90;;;;;;5029089;28;20036;-69
2021/12/19 07:29:56;;;;;;;7.15;3.60;;;2.30;99.90;;;;;;5034168;28;20021;-68
2021/12/19 07:32:24;;;;;;;6.47;3.40;;;2.30;99.90;;;;;;5030857;28;20025;-66
2021/12/19 07:34:50;;;;;;;4.63;3.33;;;2.30;99.90;;;;;;5039490;28;20116;-67
2021/12/19 07:37:18;;;;;;;5.78;2.92;;;2.30;99.90;;;;;;5042601;28;20025;-67
2021/12/19 07:39:57;;;;;;;5.43;3.25;;;2.30;99.90;;;;;;5034957;28;20031;-67
2021/12/19 07:42:23;;;;;;;3.88;2.88;;;2.40;99.90;;;;;;5034756;28;20501;-68
2021/12/19 07:44:48;;;;;;;4.72;2.80;;;2.40;99.90;;;;;;5028441;28;20116;-68
2021/12/19 07:47:15;;;;;;;2.70;2.30;;;2.40;99.90;;;;;;5037598;28;20036;-68
2021/12/19 07:49:41;;;;;;;2.70;2.10;;;2.40;99.90;;;;;;5031444;28;20034;-68
2021/12/19 07:52:07;;;;;;;3.83;1.88;;;2.40;99.90;;;;;;5030846;28;20036;-68
2021/12/19 07:54:33;;;;;;;2.17;1.98;;;2.40;99.90;;;;;;5036866;28;20481;-68
2021/12/19 07:56:58;;;;;;;2.30;1.80;;;2.40;99.90;;;;;;5032849;28;20061;-67
2021/12/19 07:59:24;;;;;;;3.97;2.38;;;2.50;99.90;;;;;;5026569;28;20068;-68
2021/12/19 08:01:50;;;;;;;2.13;1.80;;;2.50;99.90;;;;;;5032472;28;20052;-68
2021/12/19 08:04:16;;;;;;;3.10;2.00;;;2.50;99.90;;;;;;5034582;28;20024;-67
2021/12/19 08:06:42;;;;;;;2.35;2.03;;;2.50;99.90;;;;;;5033100;28;20401;-68
2021/12/19 08:09:09;;;;;;;2.30;1.80;;;2.50;99.90;;;;;;5031076;28;20071;-68
2021/12/19 08:11:42;;;;;;;2.25;1.90;;;2.50;99.90;;;;;;5035188;28;20520;-68
2021/12/19 08:14:11;;;;;;;2.20;1.98;;;2.50;99.90;;;;;;5031160;28;20032;-68
2021/12/19 08:16:37;;;;;;;2.50;2.10;;;2.50;99.90;;;;;;5034826;28;20033;-68
2021/12/19 08:19:03;;;;;;;2.20;2.03;;;2.50;99.90;;;;;;5033308;28;20074;-68
2021/12/19 08:21:29;;;;;;;3.03;1.95;;;2.50;99.90;;;;;;5035361;28;20029;-68
2021/12/19 08:23:58;;;;;;;2.55;2.35;;;2.50;99.90;;;;;;5033465;28;20511;-68
2021/12/19 08:26:25;;;;;;;2.60;2.20;;;2.50;99.90;;;;;;5024525;28;20021;-68
2021/12/19 08:28:50;;;;;;;2.40;2.20;;;2.60;99.90;;;;;;5038760;28;20056;-68
2021/12/19 08:31:16;;;;;;;2.42;2.22;;;2.60;99.90;;;;;;5032558;28;20057;-68
2021/12/19 08:33:42;;;;;;;2.95;2.60;;;2.50;99.90;;;;;;5034004;28;20032;-68
2021/12/19 08:36:07;;;;;;;2.97;2.67;;;2.60;99.90;;;;;;5033778;28;20022;-68
2021/12/19 08:38:34;;;;;;;10.63;7.28;;;2.60;99.90;;;;;;5033459;28;20148;-68
2021/12/19 08:41:00;;;;;;;11.10;8.20;;;2.70;99.90;;;;;;5034936;28;20021;-67
2021/12/19 08:43:25;;;;;;;4.53;3.05;;;2.70;99.90;;;;;;5034629;28;20473;-67
2021/12/19 08:45:51;;;;;;;7.50;5.03;;;2.70;99.90;;;;;;5034271;28;20029;-67
2021/12/19 08:48:18;;;;;;;7.90;5.22;;;2.70;99.90;;;;;;5033026;28;20101;-68
2021/12/19 08:50:44;;;;;;;12.23;9.30;;;2.70;99.90;;;;;;5042599;28;20021;-68
2021/12/19 08:53:10;;;;;;;9.18;8.23;;;2.70;99.90;;;;;;5033792;28;20029;-68
2021/12/19 08:55:36;;;;;;;5.03;4.30;;;2.70;99.90;;;;;;5033581;28;20497;-68
2021/12/19 08:58:02;;;;;;;4.03;2.90;;;2.70;99.90;;;;;;5032349;28;20496;-68
2021/12/19 09:00:28;;;;;;;4.30;3.72;;;2.70;99.90;;;;;;5034172;28;20029;-68
2021/12/19 09:02:55;;;;;;;3.95;3.10;;;2.70;99.90;;;;;;5033900;28;20037;-68
2021/12/19 09:05:26;;;;;;;5.25;3.80;;;2.70;99.90;;;;;;5033594;28;20033;-68
2021/12/19 09:07:52;;;;;;;5.18;4.22;;;2.80;99.90;;;;;;5042811;28;20029;-68
2021/12/19 09:10:19;;;;;;;4.93;3.25;;;2.70;99.90;;;;;;5052059;28;20021;-68
2021/12/19 09:12:46;;;;;;;4.85;3.30;;;2.70;99.90;;;;;;5051222;28;20021;-67
2021/12/19 09:15:12;;;;;;;5.93;3.70;;;2.70;99.90;;;;;;5033099;28;20036;-67
2021/12/19 09:17:37;;;;;;;3.35;3.05;;;2.70;99.90;;;;;;5031092;28;20033;-68
2021/12/19 09:20:04;;;;;;;5.47;3.60;;;2.70;99.90;;;;;;5038598;28;20035;-68
2021/12/19 09:22:30;;;;;;;5.45;3.30;;;2.70;99.90;;;;;;5029984;28;20083;-68
2021/12/19 09:24:56;;;;;;;4.32;3.53;;;2.70;99.90;;;;;;5031525;28;20123;-69
2021/12/19 09:27:22;;;;;;;4.20;3.63;;;2.80;99.90;;;;;;5047880;28;20029;-68
2021/12/19 09:29:47;;;;;;;5.28;3.60;;;2.70;99.90;;;;;;5033602;28;20024;-68
2021/12/19 09:32:13;;;;;;;7.78;6.55;;;2.80;99.90;;;;;;5034055;28;20025;-68
2021/12/19 09:34:38;;;;;;;9.00;7.50;;;2.70;99.90;;;;;;5040273;28;20509;-68
2021/12/19 09:37:04;;;;;;;7.95;6.00;;;2.80;99.90;;;;;;5032659;28;20070;-68
2021/12/19 09:39:31;;;;;;;8.43;6.88;;;2.70;99.90;;;;;;5032256;28;20021;-68
2021/12/19 09:42:07;;;;;;;10.07;7.75;;;2.70;99.90;;;;;;5033324;28;20091;-68
2021/12/19 09:44:33;;;;;;;6.25;4.70;;;2.70;99.90;;;;;;5033233;28;20044;-68
2021/12/19 09:46:59;;;;;;;6.35;4.68;;;2.70;99.90;;;;;;5032338;28;20056;-68
2021/12/19 09:49:25;;;;;;;7.85;5.43;;;2.80;99.90;;;;;;5033180;28;20054;-68
2021/12/19 09:51:52;;;;;;;5.47;4.10;;;2.80;99.90;;;;;;5031697;28;20031;-69
2021/12/19 09:54:19;;;;;;;6.53;4.72;;;2.80;99.90;;;;;;5032232;28;20433;-68
2021/12/19 09:56:46;;;;;;;6.68;4.60;;;2.80;99.90;;;;;;5031898;28;20031;-69
2021/12/19 09:59:18;;;;;;;6.22;4.32;;;2.80;99.90;;;;;;5032456;28;20025;-69
2021/12/19 10:01:44;;;;;;;;;;;2.80;99.90;;;;;;5038035;28;20056;-69
2021/12/19 10:04:29;;;;;;;16.08;14.38;;;2.80;99.90;;;;;;5033239;28;19980;-69
2021/12/19 10:07:14;;;;;;;9.10;6.05;;;2.90;99.90;;;;;;5034454;28;20111;-69
2021/12/19 10:10:01;;;;;;;9.43;6.65;;;2.90;99.90;;;;;;5040173;28;20029;-69
2021/12/19 10:15:27;;;;;;;9.90;5.60;;;2.90;99.90;;;;;;5045310;28;20036;-68
2021/12/19 10:18:00;;;;;;;6.70;5.40;;;2.90;99.90;;;;;;5026969;28;20029;-68
2021/12/19 10:20:26;;;;;;;12.43;7.70;;;2.90;99.90;;;;;;5030554;28;20035;-68
2021/12/19 10:22:52;;;;;;;6.95;4.63;;;2.80;99.90;;;;;;5027466;28;20033;-68
2021/12/19 10:25:30;;;;;;;6.55;4.82;;;2.80;99.90;;;;;;5037995;28;20377;-68
2021/12/19 10:28:03;;;;;;;7.65;4.80;;;2.90;99.90;;;;;;5031910;28;20025;-68
2021/12/19 10:30:49;;;;;;;8.02;4.88;;;2.80;99.90;;;;;;5031180;28;20131;-68
2021/12/19 10:33:17;;;;;;;8.15;5.07;;;2.80;99.90;;;;;;5048199;28;20052;-69
2021/12/19 10:35:57;;;;;;;7.10;4.30;;;2.80;99.90;;;;;;5026194;28;20029;-69
2021/12/19 10:38:22;;;;;;;7.10;4.75;;;2.80;99.90;;;;;;5032261;28;20393;-68
2021/12/19 10:41:08;;;;;;;6.80;5.28;;;2.80;99.90;;;;;;5040281;28;20032;-68
2021/12/19 10:43:41;;;;;;;9.43;6.10;;;2.80;99.90;;;;;;5030215;28;20025;-68
2021/12/19 10:46:07;;;;;;;8.40;5.20;;;2.80;99.90;;;;;;5024906;28;20448;-68
2021/12/19 10:48:36;;;;;;;7.55;5.30;;;2.80;99.90;;;;;;5031358;28;20056;-69
2021/12/19 10:51:11;;;;;;;8.82;5.65;;;2.80;99.90;;;;;;5032790;28;20025;-68
2021/12/19 10:53:45;;;;;;;10.25;6.07;;;2.80;99.90;;;;;;5029219;28;20021;-68
2021/12/19 10:56:12;;;;;;;9.98;7.85;;;2.90;99.90;;;;;;5025173;28;20366;-68
2021/12/19 10:58:47;;;;;;;15.55;10.02;;;2.90;99.90;;;;;;5031726;28;20025;-68
2021/12/19 11:01:22;;;;;;;10.20;6.78;;;2.80;99.90;;;;;;5023028;28;20629;-68
2021/12/19 11:04:07;;;;;;;14.55;8.82;;;2.80;99.90;;;;;;5024254;28;20049;-68
2021/12/19 11:06:50;;;;;;;8.27;6.10;;;2.80;99.90;;;;;;5030599;28;20021;-68
2021/12/19 11:09:21;;;;;;;10.18;6.68;;;2.80;99.90;;;;;;5028550;28;20017;-68
2021/12/19 11:11:51;;;;;;;9.20;6.53;;;2.80;99.90;;;;;;5039164;28;20025;-68
2021/12/19 11:14:27;;;;;;;15.73;8.93;;;2.80;99.90;;;;;;5032312;28;20373;-68
2021/12/19 11:16:59;;;;;;;12.27;8.07;;;2.80;99.90;;;;;;5032274;28;20021;-68
2021/12/19 11:19:26;;;;;;;13.13;7.30;;;2.80;99.90;;;;;;5032234;28;20031;-68
2021/12/19 11:21:52;;;;;;;10.90;7.32;;;2.80;99.90;;;;;;5031749;28;20085;-68
2021/12/19 11:24:23;;;;;;;11.60;7.47;;;2.80;99.90;;;;;;5031748;28;20029;-68
2021/12/19 11:26:54;;;;;;;15.35;9.35;;;2.80;99.90;;;;;;5021279;28;20091;-68
2021/12/19 11:29:21;;;;;;;14.20;7.47;;;2.90;99.90;;;;;;5030867;28;20021;-68
2021/12/19 11:31:50;;;;;;;14.30;8.45;;;2.80;99.90;;;;;;5028470;28;20667;-68
2021/12/19 11:34:35;;;;;;;10.02;5.75;;;2.90;99.90;;;;;;5054853;28;20034;-68
2021/12/19 11:37:06;;;;;;;14.75;7.15;;;2.90;99.90;;;;;;5030822;28;20124;-68
2021/12/19 11:39:36;;;;;;;10.32;6.53;;;2.90;99.90;;;;;;5031644;28;20104;-69
2021/12/19 11:42:03;;;;;;;10.10;6.60;;;2.90;99.90;;;;;;5034288;28;20120;-68
2021/12/19 11:47:44;;;;;;;11.02;7.05;;;2.90;99.90;;;;;;5045473;28;20695;-68
2021/12/19 11:50:25;;;;;;;11.00;7.77;;;2.90;99.90;;;;;;5029453;28;20552;-68
2021/12/19 11:52:58;;;;;;;10.63;6.85;;;2.90;99.90;;;;;;5049263;28;20044;-68
2021/12/19 11:55:43;;;;;;;12.13;7.35;;;2.90;99.90;;;;;;5050933;28;20039;-68
2021/12/19 11:58:08;;;;;;;11.02;6.15;;;2.90;99.90;;;;;;5030609;28;20037;-68
2021/12/19 12:00:34;;;;;;;10.30;6.97;;;2.90;99.90;;;;;;5033762;28;20058;-68
2021/12/19 12:03:12;;;;;;;11.02;7.55;;;3.00;99.90;;;;;;5034093;28;20029;-68
2021/12/19 12:05:44;;;;;;;13.10;7.90;;;3.00;99.90;;;;;;5028844;28;20048;-67
2021/12/19 12:08:11;;;;;;;13.82;8.05;;;3.00;99.90;;;;;;5033045;28;20540;-68
2021/12/19 12:10:54;;;;;;;12.68;6.95;;;3.00;99.90;;;;;;5030827;28;20393;-68
2021/12/19 12:13:33;;;;;;;10.48;7.30;;;3.00;99.90;;;;;;5048791;28;20052;-67
2021/12/19 12:16:33;;;;;;;11.85;6.80;;;3.00;99.90;;;;;;5030265;28;20151;-68
2021/12/19 12:19:01;;;;;;;12.15;7.05;;;3.00;99.90;;;;;;5035926;28;20037;-69
2021/12/19 12:21:30;;;;;;;14.70;8.00;;;3.00;99.90;;;;;;5039683;28;20036;-69
2021/12/19 12:24:00;;;;;;;13.57;8.32;;;3.00;99.90;;;;;;5034278;28;20558;-68
2021/12/19 12:26:34;;;;;;;14.18;7.78;;;3.10;99.90;;;;;;5034945;28;20033;-67
2021/12/19 12:29:00;;;;;;;11.40;7.05;;;3.10;99.90;;;;;;5050210;28;20079;-67
2021/12/19 12:31:27;;;;;;;12.32;7.18;;;3.10;99.90;;;;;;5033704;28;20021;-68
2021/12/19 12:33:54;;;;;;;13.20;7.38;;;3.20;99.90;;;;;;5031968;28;20025;-68
2021/12/19 12:36:20;;;;;;;11.63;7.40;;;3.10;99.90;;;;;;5034498;28;20078;-69
2021/12/19 12:38:50;;;;;;;11.98;6.82;;;3.10;99.90;;;;;;5032503;28;20049;-68
2021/12/19 12:42:22;;;;;;;14.63;7.60;;;3.10;99.90;;;;;;5025666;28;20470;-68
2021/12/19 12:44:21;;;;;;;17.70;8.88;;;3.10;99.90;;;;;;5019726;28;20045;-69
2021/12/19 12:46:47;;;;;;;11.45;7.65;;;3.10;99.90;;;;;;5046364;28;20082;-67
2021/12/19 12:49:17;;;;;;;12.63;7.22;;;3.10;99.90;;;;;;5042060;28;20029;-67
2021/12/19 12:51:48;;;;;;;16.88;9.15;;;3.10;99.90;;;;;;5034990;28;20041;-68
2021/12/19 12:54:19;;;;;;;22.25;12.77;;;3.10;99.90;;;;;;5035930;28;20089;-67
2021/12/19 12:56:49;;;;;;;14.60;8.73;;;3.10;99.90;;;;;;5039692;28;20020;-69
2021/12/19 12:59:18;;;;;;;18.35;10.45;;;3.10;99.90;;;;;;5027740;28;20116;-67
2021/12/19 13:01:55;;;;;;;16.13;10.73;;;3.10;99.90;;;;;;5033718;28;20025;-68
2021/12/19 13:04:26;;;;;;;25.90;16.92;;;3.10;99.90;;;;;;5045726;28;20541;-68
2021/12/19 13:07:12;;;;;;;21.70;14.40;;;3.10;99.90;;;;;;5032328;28;20040;-70
2021/12/19 13:09:42;;;;;;;17.63;12.23;;;3.10;99.90;;;;;;5022200;28;20755;-68
2021/12/19 13:12:25;;;;;;;17.40;11.00;;;3.10;99.90;;;;;;5028772;28;20068;-68
2021/12/19 13:14:57;;;;;;;17.02;9.90;;;3.10;99.90;;;;;;5024070;28;20030;-69
2021/12/19 13:17:43;;;;;;;16.10;10.07;;;3.10;99.90;;;;;;5017085;28;20414;-69
2021/12/19 13:20:27;;;;;;;17.15;10.05;;;3.10;99.90;;;;;;5023875;28;20028;-69
2021/12/19 13:22:58;;;;;;;19.25;10.20;;;3.20;99.90;;;;;;5013661;28;20127;-68
2021/12/19 13:25:42;;;;;;;19.70;11.07;;;3.10;99.90;;;;;;5027846;28;20029;-69
2021/12/19 13:28:12;;;;;;;16.88;10.40;;;3.10;99.90;;;;;;5016553;28;20501;-69
2021/12/19 13:30:46;;;;;;;20.30;11.38;;;3.10;99.90;;;;;;5022356;28;20033;-69
2021/12/19 13:33:16;;;;;;;14.75;8.52;;;3.10;99.90;;;;;;5023635;28;20032;-69
2021/12/19 13:35:47;;;;;;;14.57;8.68;;;3.00;99.90;;;;;;5031653;28;20055;-69
2021/12/19 13:38:19;;;;;;;13.17;7.63;;;3.00;99.90;;;;;;5027178;28;20059;-69
2021/12/19 13:40:54;;;;;;;12.27;6.50;;;2.90;99.90;;;;;;5046288;28;20040;-69
2021/12/19 13:43:28;;;;;;;12.45;8.02;;;2.90;99.90;;;;;;5025303;28;20283;-69
2021/12/19 13:45:55;;;;;;;16.17;8.73;;;2.90;99.90;;;;;;5015057;28;20036;-69
2021/12/19 13:48:38;;;;;;;16.33;9.60;;;2.90;99.90;;;;;;5024961;28;20021;-69
2021/12/19 13:51:12;;;;;;;16.88;9.60;;;2.90;99.90;;;;;;5048408;28;20037;-69
2021/12/19 13:53:45;;;;;;;15.63;8.95;;;2.90;99.90;;;;;;5021518;28;20040;-69
2021/12/19 13:56:26;;;;;;;17.85;10.45;;;2.90;99.90;;;;;;5028361;28;20555;-69
2021/12/19 13:58:55;;;;;;;15.52;8.02;;;2.80;99.90;;;;;;5022833;28;20037;-70
2021/12/19 14:01:22;;;;;;;15.38;8.30;;;2.80;99.90;;;;;;5040659;28;20116;-69
2021/12/19 14:03:54;;;;;;;15.07;7.93;;;2.90;99.90;;;;;;5021730;28;20033;-69
2021/12/19 14:06:37;;;;;;;15.70;9.60;;;2.80;99.90;;;;;;5020950;28;20401;-69
2021/12/19 14:09:20;;;;;;;18.60;8.98;;;2.90;99.90;;;;;;5024715;28;20028;-69
2021/12/19 14:11:55;;;;;;;17.58;8.50;;;2.80;99.90;;;;;;5038699;28;20033;-69
2021/12/19 14:14:26;;;;;;;19.08;10.07;;;2.80;99.90;;;;;;5023574;28;20033;-70
2021/12/19 14:17:12;;;;;;;19.83;10.50;;;2.80;99.90;;;;;;5016137;28;20292;-68
2021/12/19 14:19:40;;;;;;;18.83;9.35;;;2.80;99.90;;;;;;5017214;28;20108;-69